X  Sluiten METAR luchtvaart weer gegevens      EHGG Eelde Airport
Temperatuur
9°C Temperatuur
6°C Dauwpunt
82% Vochtigheid



Wind
10 KM/U
6 MPH
3 M/S
5 KTS



290°
WNW
Huidig weer

Geheel bewolkt Geheel bewolkt
Luchtdruk 1006.92 (hPa) - 29.73 (inHg)
Zicht 6.2 (mijl) - 10 (km)
Vliegveld
Vliegveld code EHGG

Locatie : Eelde Airport
Afstand: 47 (km)

Metar:
EHGG 140655Z AUTO 29005KT 250V320 9999 OVC010/// 09/06 Q1007 BECMG SCT020

Tijd: 14-05-2021 08:55 CEST